sensor_id;sensor_type;location;lat;lon;timestamp;pressure;altitude;pressure_sealevel;temperature;humidity
51229;BME280;37304;52.216;6.874;2023-03-25T00:02:12;99802.91;;;8.05;100.00
51229;BME280;37304;52.216;6.874;2023-03-25T00:07:12;99810.81;;;7.99;100.00
51229;BME280;37304;52.216;6.874;2023-03-25T00:12:14;99807.47;;;7.94;100.00
51229;BME280;37304;52.216;6.874;2023-03-25T00:17:15;99803.25;;;7.90;100.00
51229;BME280;37304;52.216;6.874;2023-03-25T00:22:17;99808.38;;;7.91;100.00
51229;BME280;37304;52.216;6.874;2023-03-25T00:27:18;99801.47;;;7.92;100.00
51229;BME280;37304;52.216;6.874;2023-03-25T00:32:18;99810.94;;;7.93;100.00
51229;BME280;37304;52.216;6.874;2023-03-25T00:37:20;99812.66;;;7.94;100.00
51229;BME280;37304;52.216;6.874;2023-03-25T00:42:20;99818.66;;;7.94;100.00
51229;BME280;37304;52.216;6.874;2023-03-25T00:47:25;99812.66;;;7.94;100.00
51229;BME280;37304;52.216;6.874;2023-03-25T00:52:26;99813.53;;;7.91;100.00
51229;BME280;37304;52.216;6.874;2023-03-25T00:57:26;99804.91;;;7.92;100.00
51229;BME280;37304;52.216;6.874;2023-03-25T01:02:27;99806.66;;;7.92;100.00
51229;BME280;37304;52.216;6.874;2023-03-25T01:07:27;99803.28;;;7.88;100.00
51229;BME280;37304;52.216;6.874;2023-03-25T01:12:31;99804.06;;;7.92;100.00
51229;BME280;37304;52.216;6.874;2023-03-25T01:17:32;99793.78;;;7.89;100.00
51229;BME280;37304;52.216;6.874;2023-03-25T01:22:32;99786.06;;;7.87;100.00
51229;BME280;37304;52.216;6.874;2023-03-25T01:27:32;99786.91;;;7.87;100.00
51229;BME280;37304;52.216;6.874;2023-03-25T01:32:33;99797.22;;;7.89;100.00
51229;BME280;37304;52.216;6.874;2023-03-25T01:37:33;99795.50;;;7.90;100.00
51229;BME280;37304;52.216;6.874;2023-03-25T01:42:35;99794.59;;;7.91;100.00
51229;BME280;37304;52.216;6.874;2023-03-25T01:47:36;99782.47;;;7.93;100.00
51229;BME280;37304;52.216;6.874;2023-03-25T01:52:36;99770.44;;;7.92;100.00
51229;BME280;37304;52.216;6.874;2023-03-25T01:57:39;99778.09;;;7.96;100.00
51229;BME280;37304;52.216;6.874;2023-03-25T02:02:43;99767.72;;;7.98;100.00
51229;BME280;37304;52.216;6.874;2023-03-25T02:07:47;99774.66;;;7.96;100.00
51229;BME280;37304;52.216;6.874;2023-03-25T02:12:48;99770.38;;;7.95;100.00
51229;BME280;37304;52.216;6.874;2023-03-25T02:18:10;99784.97;;;7.97;100.00
51229;BME280;37304;52.216;6.874;2023-03-25T02:29:09;99779.69;;;8.02;100.00
51229;BME280;37304;52.216;6.874;2023-03-25T02:39:58;99775.41;;;8.01;100.00
51229;BME280;37304;52.216;6.874;2023-03-25T02:45:05;99765.03;;;8.02;100.00
51229;BME280;37304;52.216;6.874;2023-03-25T02:50:18;99759.84;;;8.02;100.00
51229;BME280;37304;52.216;6.874;2023-03-25T02:55:21;99763.50;;;7.94;100.00
51229;BME280;37304;52.216;6.874;2023-03-25T03:00:27;99771.50;;;7.83;100.00
51229;BME280;37304;52.216;6.874;2023-03-25T03:05:36;99774.25;;;7.75;100.00
51229;BME280;37304;52.216;6.874;2023-03-25T03:10:53;99768.28;;;7.71;100.00
51229;BME280;37304;52.216;6.874;2023-03-25T03:21:50;99763.16;;;7.70;100.00
51229;BME280;37304;52.216;6.874;2023-03-25T03:27:10;99761.53;;;7.66;100.00
51229;BME280;37304;52.216;6.874;2023-03-25T03:32:41;99758.25;;;7.57;100.00
51229;BME280;37304;52.216;6.874;2023-03-25T03:37:50;99752.38;;;7.51;100.00
51229;BME280;37304;52.216;6.874;2023-03-25T03:42:53;99762.88;;;7.43;100.00
51229;BME280;37304;52.216;6.874;2023-03-25T03:47:57;99751.03;;;7.33;100.00
51229;BME280;37304;52.216;6.874;2023-03-25T03:53:01;99776.88;;;7.33;100.00
51229;BME280;37304;52.216;6.874;2023-03-25T03:58:25;99781.09;;;7.37;100.00
51229;BME280;37304;52.216;6.874;2023-03-25T04:03:32;99780.25;;;7.36;100.00
51229;BME280;37304;52.216;6.874;2023-03-25T04:08:39;99776.75;;;7.39;100.00
51229;BME280;37304;52.216;6.874;2023-03-25T04:13:46;99774.13;;;7.40;100.00
51229;BME280;37304;52.216;6.874;2023-03-25T04:18:49;99779.31;;;7.40;100.00
51229;BME280;37304;52.216;6.874;2023-03-25T04:23:52;99780.53;;;7.22;100.00
51229;BME280;37304;52.216;6.874;2023-03-25T04:28:53;99777.38;;;7.08;100.00
51229;BME280;37304;52.216;6.874;2023-03-25T04:33:53;99790.41;;;7.00;100.00
51229;BME280;37304;52.216;6.874;2023-03-25T04:38:54;99783.63;;;6.96;100.00
51229;BME280;37304;52.216;6.874;2023-03-25T04:43:55;99786.19;;;6.97;100.00
51229;BME280;37304;52.216;6.874;2023-03-25T04:48:55;99788.72;;;7.01;100.00
51229;BME280;37304;52.216;6.874;2023-03-25T04:53:56;99780.13;;;6.98;100.00
51229;BME280;37304;52.216;6.874;2023-03-25T04:58:56;99779.22;;;7.01;100.00
51229;BME280;37304;52.216;6.874;2023-03-25T05:03:58;99778.38;;;7.01;100.00
51229;BME280;37304;52.216;6.874;2023-03-25T05:09:06;99775.72;;;7.04;100.00
51229;BME280;37304;52.216;6.874;2023-03-25T05:14:08;99776.56;;;7.06;100.00
51229;BME280;37304;52.216;6.874;2023-03-25T05:19:09;99777.31;;;7.11;100.00
51229;BME280;37304;52.216;6.874;2023-03-25T05:24:11;99778.97;;;7.13;100.00
51229;BME280;37304;52.216;6.874;2023-03-25T05:29:14;99780.72;;;7.13;100.00
51229;BME280;37304;52.216;6.874;2023-03-25T05:34:14;99769.38;;;7.20;100.00
51229;BME280;37304;52.216;6.874;2023-03-25T05:39:16;99769.38;;;7.19;100.00
51229;BME280;37304;52.216;6.874;2023-03-25T05:44:18;99772.84;;;7.19;100.00
51229;BME280;37304;52.216;6.874;2023-03-25T05:49:18;99769.38;;;7.19;100.00
51229;BME280;37304;52.216;6.874;2023-03-25T05:54:21;99778.19;;;7.10;100.00
51229;BME280;37304;52.216;6.874;2023-03-25T05:59:23;99774.72;;;7.11;100.00
51229;BME280;37304;52.216;6.874;2023-03-25T06:04:25;99785.06;;;7.09;100.00
51229;BME280;37304;52.216;6.874;2023-03-25T06:09:25;99793.75;;;7.05;100.00
51229;BME280;37304;52.216;6.874;2023-03-25T06:14:30;99779.09;;;7.07;100.00
51229;BME280;37304;52.216;6.874;2023-03-25T06:19:30;99769.50;;;7.14;100.00
51229;BME280;37304;52.216;6.874;2023-03-25T06:24:30;99757.28;;;7.22;100.00
51229;BME280;37304;52.216;6.874;2023-03-25T06:29:33;99773.72;;;7.18;100.00
51229;BME280;37304;52.216;6.874;2023-03-25T06:34:33;99779.16;;;7.04;100.00
51229;BME280;37304;52.216;6.874;2023-03-25T06:39:34;99792.06;;;7.06;100.00
51229;BME280;37304;52.216;6.874;2023-03-25T06:44:36;99804.81;;;7.13;100.00
51229;BME280;37304;52.216;6.874;2023-03-25T06:49:37;99808.03;;;6.78;100.00
51229;BME280;37304;52.216;6.874;2023-03-25T06:54:37;99817.19;;;6.46;100.00
51229;BME280;37304;52.216;6.874;2023-03-25T06:59:38;99809.34;;;5.94;100.00
51229;BME280;37304;52.216;6.874;2023-03-25T07:04:39;99804.22;;;5.89;100.00
51229;BME280;37304;52.216;6.874;2023-03-25T07:09:40;99805.75;;;6.06;100.00
51229;BME280;37304;52.216;6.874;2023-03-25T07:14:40;99813.31;;;6.17;100.00
51229;BME280;37304;52.216;6.874;2023-03-25T07:19:41;99815.53;;;6.41;100.00
51229;BME280;37304;52.216;6.874;2023-03-25T07:24:43;99820.06;;;6.79;100.00
51229;BME280;37304;52.216;6.874;2023-03-25T07:29:43;99814.78;;;6.87;100.00
51229;BME280;37304;52.216;6.874;2023-03-25T07:34:44;99831.88;;;6.92;100.00
51229;BME280;37304;52.216;6.874;2023-03-25T07:39:44;99834.38;;;6.98;100.00
51229;BME280;37304;52.216;6.874;2023-03-25T07:44:45;99830.81;;;7.04;100.00
51229;BME280;37304;52.216;6.874;2023-03-25T07:49:45;99828.94;;;7.12;100.00
51229;BME280;37304;52.216;6.874;2023-03-25T07:54:46;99829.56;;;7.25;100.00
51229;BME280;37304;52.216;6.874;2023-03-25T07:59:47;99819.75;;;7.43;100.00
51229;BME280;37304;52.216;6.874;2023-03-25T08:04:47;99820.94;;;7.69;100.00
51229;BME280;37304;52.216;6.874;2023-03-25T08:09:48;99800.06;;;7.78;100.00
51229;BME280;37304;52.216;6.874;2023-03-25T08:14:48;99790.59;;;7.77;100.00
51229;BME280;37304;52.216;6.874;2023-03-25T08:19:51;99811.41;;;7.71;100.00
51229;BME280;37304;52.216;6.874;2023-03-25T08:24:52;99814.91;;;7.70;100.00
51229;BME280;37304;52.216;6.874;2023-03-25T08:29:58;99818.38;;;7.69;100.00
51229;BME280;37304;52.216;6.874;2023-03-25T08:34:59;99832.28;;;7.62;100.00
51229;BME280;37304;52.216;6.874;2023-03-25T08:40:01;99828.09;;;7.56;100.00
51229;BME280;37304;52.216;6.874;2023-03-25T08:45:06;99848.03;;;7.49;100.00
51229;BME280;37304;52.216;6.874;2023-03-25T08:50:07;99842.75;;;7.55;100.00
51229;BME280;37304;52.216;6.874;2023-03-25T08:55:09;99837.44;;;7.62;100.00
51229;BME280;37304;52.216;6.874;2023-03-25T09:00:10;99849.41;;;7.67;100.00
51229;BME280;37304;52.216;6.874;2023-03-25T09:05:12;99841.44;;;7.78;100.00
51229;BME280;37304;52.216;6.874;2023-03-25T09:10:13;99843.75;;;7.91;100.00
51229;BME280;37304;52.216;6.874;2023-03-25T09:15:13;99845.03;;;8.10;100.00
51229;BME280;37304;52.216;6.874;2023-03-25T09:20:14;99847.47;;;8.18;100.00
51229;BME280;37304;52.216;6.874;2023-03-25T09:25:14;99847.75;;;8.43;100.00
51229;BME280;37304;52.216;6.874;2023-03-25T09:30:15;99838.34;;;8.76;100.00
51229;BME280;37304;52.216;6.874;2023-03-25T09:35:15;99841.47;;;9.22;100.00
51229;BME280;37304;52.216;6.874;2023-03-25T09:40:18;99836.16;;;9.58;100.00
51229;BME280;37304;52.216;6.874;2023-03-25T09:45:41;99844.97;;;9.52;100.00
51229;BME280;37304;52.216;6.874;2023-03-25T09:50:43;99837.53;;;9.40;100.00
51229;BME280;37304;52.216;6.874;2023-03-25T09:55:45;99843.13;;;9.86;100.00
51229;BME280;37304;52.216;6.874;2023-03-25T10:00:52;99843.06;;;9.59;100.00
51229;BME280;37304;52.216;6.874;2023-03-25T10:06:19;99848.16;;;9.30;100.00
51229;BME280;37304;52.216;6.874;2023-03-25T10:11:32;99839.84;;;9.19;100.00
51229;BME280;37304;52.216;6.874;2023-03-25T10:22:00;99855.88;;;9.00;100.00
51229;BME280;37304;52.216;6.874;2023-03-25T10:27:09;99863.50;;;8.72;100.00
51229;BME280;37304;52.216;6.874;2023-03-25T10:32:16;99870.38;;;8.35;100.00
51229;BME280;37304;52.216;6.874;2023-03-25T10:37:24;99866.63;;;8.11;100.00
51229;BME280;37304;52.216;6.874;2023-03-25T10:42:34;99879.63;;;8.06;100.00
51229;BME280;37304;52.216;6.874;2023-03-25T10:47:39;99885.72;;;8.43;100.00
51229;BME280;37304;52.216;6.874;2023-03-25T10:52:41;99882.44;;;8.36;100.00
51229;BME280;37304;52.216;6.874;2023-03-25T10:57:42;99886.63;;;8.42;100.00
51229;BME280;37304;52.216;6.874;2023-03-25T11:02:46;99878.31;;;9.01;100.00
51229;BME280;37304;52.216;6.874;2023-03-25T11:08:07;99872.31;;;8.99;100.00
51229;BME280;37304;52.216;6.874;2023-03-25T11:13:14;99880.03;;;8.66;100.00
51229;BME280;37304;52.216;6.874;2023-03-25T11:18:42;99881.03;;;8.60;100.00
51229;BME280;37304;52.216;6.874;2023-03-25T11:35:43;99860.50;;;10.12;100.00
51229;BME280;37304;52.216;6.874;2023-03-25T11:40:56;99873.09;;;9.36;100.00
51229;BME280;37304;52.216;6.874;2023-03-25T11:46:07;99887.88;;;9.64;100.00
51229;BME280;37304;52.216;6.874;2023-03-25T11:51:18;99872.06;;;10.60;100.00
51229;BME280;37304;52.216;6.874;2023-03-25T11:56:28;99871.00;;;10.09;100.00
51229;BME280;37304;52.216;6.874;2023-03-25T12:01:45;99861.03;;;10.24;100.00
51229;BME280;37304;52.216;6.874;2023-03-25T12:07:06;99863.69;;;10.77;100.00
51229;BME280;37304;52.216;6.874;2023-03-25T13:09:11;99857.78;;;9.88;100.00
51229;BME280;37304;52.216;6.874;2023-03-25T13:14:29;99828.94;;;9.38;100.00
51229;BME280;37304;52.216;6.874;2023-03-25T13:19:36;99827.84;;;8.82;100.00
51229;BME280;37304;52.216;6.874;2023-03-25T13:24:51;99836.19;;;8.93;100.00
51229;BME280;37304;52.216;6.874;2023-03-25T13:29:56;99826.75;;;8.91;100.00
51229;BME280;37304;52.216;6.874;2023-03-25T13:35:58;99839.22;;;9.09;100.00
51229;BME280;37304;52.216;6.874;2023-03-25T13:41:07;99823.13;;;10.18;100.00
51229;BME280;37304;52.216;6.874;2023-03-25T13:46:13;99809.94;;;9.97;100.00
51229;BME280;37304;52.216;6.874;2023-03-25T13:51:15;99810.75;;;10.55;100.00
51229;BME280;37304;52.216;6.874;2023-03-25T13:57:14;99803.31;;;10.69;100.00
51229;BME280;37304;52.216;6.874;2023-03-25T14:13:38;99819.25;;;10.31;100.00
51229;BME280;37304;52.216;6.874;2023-03-25T14:18:42;99821.81;;;10.33;100.00
51229;BME280;37304;52.216;6.874;2023-03-25T14:23:43;99814.72;;;10.38;100.00
51229;BME280;37304;52.216;6.874;2023-03-25T14:28:44;99824.97;;;10.70;100.00
51229;BME280;37304;52.216;6.874;2023-03-25T14:38:59;99820.63;;;10.70;100.00
51229;BME280;37304;52.216;6.874;2023-03-25T14:44:16;99822.00;;;10.81;100.00
51229;BME280;37304;52.216;6.874;2023-03-25T14:49:20;99828.91;;;10.82;100.00
51229;BME280;37304;52.216;6.874;2023-03-25T14:54:28;99839.59;;;10.72;100.00
51229;BME280;37304;52.216;6.874;2023-03-25T14:59:38;99842.47;;;10.90;100.00
51229;BME280;37304;52.216;6.874;2023-03-25T15:04:39;99846.25;;;10.81;100.00
51229;BME280;37304;52.216;6.874;2023-03-25T15:09:49;99841.09;;;10.80;100.00
51229;BME280;37304;52.216;6.874;2023-03-25T15:14:55;99836.31;;;10.67;100.00
51229;BME280;37304;52.216;6.874;2023-03-25T15:25:22;99859.88;;;10.34;100.00
51229;BME280;37304;52.216;6.874;2023-03-25T15:40:59;99888.31;;;9.15;100.00
51229;BME280;37304;52.216;6.874;2023-03-25T15:56:47;99901.19;;;8.84;100.00
51229;BME280;37304;52.216;6.874;2023-03-25T16:01:50;99897.84;;;8.80;100.00
51229;BME280;37304;52.216;6.874;2023-03-25T16:06:52;99910.97;;;8.72;100.00
51229;BME280;37304;52.216;6.874;2023-03-25T16:11:59;99934.41;;;8.68;100.00
51229;BME280;37304;52.216;6.874;2023-03-25T16:17:02;99956.19;;;8.57;100.00
51229;BME280;37304;52.216;6.874;2023-03-25T16:22:14;100003.59;;;8.19;100.00
51229;BME280;37304;52.216;6.874;2023-03-25T16:27:25;100018.16;;;7.79;100.00
51229;BME280;37304;52.216;6.874;2023-03-25T16:32:33;100000.94;;;7.79;100.00
51229;BME280;37304;52.216;6.874;2023-03-25T16:37:36;100018.09;;;7.82;100.00
51229;BME280;37304;52.216;6.874;2023-03-25T16:42:38;100020.97;;;7.66;100.00
51229;BME280;37304;52.216;6.874;2023-03-25T16:47:38;100031.50;;;7.57;100.00
51229;BME280;37304;52.216;6.874;2023-03-25T16:52:39;100033.41;;;7.44;100.00
51229;BME280;37304;52.216;6.874;2023-03-25T16:57:39;100036.88;;;7.43;100.00
51229;BME280;37304;52.216;6.874;2023-03-25T17:02:40;100034.25;;;7.46;100.00
51229;BME280;37304;52.216;6.874;2023-03-25T17:07:41;100041.22;;;7.41;100.00
51229;BME280;37304;52.216;6.874;2023-03-25T17:12:42;100030.09;;;7.37;100.00
51229;BME280;37304;52.216;6.874;2023-03-25T17:17:50;100041.28;;;7.39;100.00
51229;BME280;37304;52.216;6.874;2023-03-25T17:23:03;100045.63;;;7.37;100.00
51229;BME280;37304;52.216;6.874;2023-03-25T17:33:35;100072.53;;;7.22;100.00
51229;BME280;37304;52.216;6.874;2023-03-25T17:38:41;100077.63;;;7.27;100.00
51229;BME280;37304;52.216;6.874;2023-03-25T17:43:46;100091.38;;;7.31;100.00
51229;BME280;37304;52.216;6.874;2023-03-25T17:48:49;100093.91;;;7.34;100.00
51229;BME280;37304;52.216;6.874;2023-03-25T17:53:52;100086.16;;;7.35;100.00
51229;BME280;37304;52.216;6.874;2023-03-25T17:58:57;100086.94;;;7.39;100.00
51229;BME280;37304;52.216;6.874;2023-03-25T18:03:58;100079.19;;;7.39;100.00
51229;BME280;37304;52.216;6.874;2023-03-25T18:08:59;100100.72;;;7.39;100.00
51229;BME280;37304;52.216;6.874;2023-03-25T18:14:00;100105.06;;;7.36;100.00
51229;BME280;37304;52.216;6.874;2023-03-25T18:19:00;100118.09;;;7.31;100.00
51229;BME280;37304;52.216;6.874;2023-03-25T18:24:01;100122.47;;;7.24;100.00
51229;BME280;37304;52.216;6.874;2023-03-25T18:29:22;100138.88;;;7.22;100.00
51229;BME280;37304;52.216;6.874;2023-03-25T18:34:23;100129.44;;;7.19;100.00
51229;BME280;37304;52.216;6.874;2023-03-25T18:39:26;100132.97;;;7.13;100.00
51229;BME280;37304;52.216;6.874;2023-03-25T18:44:30;100143.28;;;7.15;100.00
51229;BME280;37304;52.216;6.874;2023-03-25T18:49:31;100150.22;;;7.11;100.00
51229;BME280;37304;52.216;6.874;2023-03-25T18:54:35;100161.47;;;7.09;100.00
51229;BME280;37304;52.216;6.874;2023-03-25T18:59:38;100163.22;;;7.05;100.00
51229;BME280;37304;52.216;6.874;2023-03-25T19:04:39;100177.03;;;7.03;100.00
51229;BME280;37304;52.216;6.874;2023-03-25T19:09:40;100178.00;;;6.92;100.00
51229;BME280;37304;52.216;6.874;2023-03-25T19:14:43;100182.38;;;6.87;100.00
51229;BME280;37304;52.216;6.874;2023-03-25T19:19:56;100186.72;;;6.85;100.00
51229;BME280;37304;52.216;6.874;2023-03-25T19:25:15;100191.88;;;6.85;100.00
51229;BME280;37304;52.216;6.874;2023-03-25T19:41:39;100201.31;;;6.88;100.00
51229;BME280;37304;52.216;6.874;2023-03-25T19:47:02;100201.31;;;6.88;100.00
51229;BME280;37304;52.216;6.874;2023-03-25T19:52:06;100204.75;;;6.88;100.00
51229;BME280;37304;52.216;6.874;2023-03-25T19:57:12;100202.97;;;6.93;100.00
51229;BME280;37304;52.216;6.874;2023-03-25T20:02:13;100197.81;;;6.93;100.00
51229;BME280;37304;52.216;6.874;2023-03-25T20:07:24;100214.13;;;6.97;100.00
51229;BME280;37304;52.216;6.874;2023-03-25T20:12:28;100210.63;;;7.01;100.00
51229;BME280;37304;52.216;6.874;2023-03-25T20:17:32;100205.44;;;7.06;100.00
51229;BME280;37304;52.216;6.874;2023-03-25T20:22:34;100214.84;;;7.08;100.00
51229;BME280;37304;52.216;6.874;2023-03-25T20:27:38;100204.50;;;7.08;100.00
51229;BME280;37304;52.216;6.874;2023-03-25T20:32:39;100212.22;;;7.11;100.00
51229;BME280;37304;52.216;6.874;2023-03-25T20:37:41;100214.78;;;7.14;100.00
51229;BME280;37304;52.216;6.874;2023-03-25T20:42:43;100213.03;;;7.17;100.00
51229;BME280;37304;52.216;6.874;2023-03-25T20:47:44;100213.84;;;7.20;100.00
51229;BME280;37304;52.216;6.874;2023-03-25T20:52:44;100207.00;;;7.16;100.00
51229;BME280;37304;52.216;6.874;2023-03-25T20:57:46;100215.69;;;7.12;100.00
51229;BME280;37304;52.216;6.874;2023-03-25T21:02:46;100213.06;;;7.13;100.00
51229;BME280;37304;52.216;6.874;2023-03-25T21:07:49;100219.13;;;7.11;100.00
51229;BME280;37304;52.216;6.874;2023-03-25T21:12:50;100219.97;;;7.11;100.00
51229;BME280;37304;52.216;6.874;2023-03-25T21:17:50;100216.59;;;7.08;100.00
51229;BME280;37304;52.216;6.874;2023-03-25T21:22:50;100231.22;;;7.09;100.00
51229;BME280;37304;52.216;6.874;2023-03-25T21:27:51;100245.84;;;7.08;100.00
51229;BME280;37304;52.216;6.874;2023-03-25T21:32:51;100252.78;;;7.08;100.00
51229;BME280;37304;52.216;6.874;2023-03-25T21:37:53;100250.19;;;7.08;100.00
51229;BME280;37304;52.216;6.874;2023-03-25T21:42:53;100254.53;;;7.06;100.00
51229;BME280;37304;52.216;6.874;2023-03-25T21:47:54;100262.22;;;7.07;100.00
51229;BME280;37304;52.216;6.874;2023-03-25T21:52:56;100264.00;;;7.04;100.00
51229;BME280;37304;52.216;6.874;2023-03-25T21:57:57;100271.75;;;7.04;100.00
51229;BME280;37304;52.216;6.874;2023-03-25T22:02:58;100273.44;;;7.06;100.00
51229;BME280;37304;52.216;6.874;2023-03-25T22:08:03;100274.34;;;7.04;100.00
51229;BME280;37304;52.216;6.874;2023-03-25T22:13:13;100279.53;;;7.04;100.00
51229;BME280;37304;52.216;6.874;2023-03-25T22:18:14;100286.41;;;7.05;100.00
51229;BME280;37304;52.216;6.874;2023-03-25T22:23:14;100291.53;;;7.08;100.00
51229;BME280;37304;52.216;6.874;2023-03-25T22:28:15;100301.03;;;7.06;100.00
51229;BME280;37304;52.216;6.874;2023-03-25T22:33:35;100302.69;;;7.08;100.00
51229;BME280;37304;52.216;6.874;2023-03-25T22:38:43;100311.31;;;7.09;100.00
51229;BME280;37304;52.216;6.874;2023-03-25T22:43:44;100308.75;;;7.09;100.00
51229;BME280;37304;52.216;6.874;2023-03-25T22:48:45;100318.22;;;7.10;100.00
51229;BME280;37304;52.216;6.874;2023-03-25T22:53:46;100311.31;;;7.09;100.00
51229;BME280;37304;52.216;6.874;2023-03-25T22:58:51;100319.97;;;7.03;100.00
51229;BME280;37304;52.216;6.874;2023-03-25T23:03:52;100334.69;;;6.99;100.00
51229;BME280;37304;52.216;6.874;2023-03-25T23:08:54;100337.38;;;6.85;100.00
51229;BME280;37304;52.216;6.874;2023-03-25T23:14:02;100333.16;;;6.77;100.00
51229;BME280;37304;52.216;6.874;2023-03-25T23:19:05;100348.69;;;6.70;100.00
51229;BME280;37304;52.216;6.874;2023-03-25T23:24:06;100359.06;;;6.67;100.00
51229;BME280;37304;52.216;6.874;2023-03-25T23:29:09;100362.50;;;6.69;100.00
51229;BME280;37304;52.216;6.874;2023-03-25T23:34:13;100352.16;;;6.69;100.00
51229;BME280;37304;52.216;6.874;2023-03-25T23:39:15;100352.22;;;6.63;100.00
51229;BME280;37304;52.216;6.874;2023-03-25T23:44:16;100356.53;;;6.60;100.00
51229;BME280;37304;52.216;6.874;2023-03-25T23:49:17;100365.13;;;6.65;100.00
51229;BME280;37304;52.216;6.874;2023-03-25T23:54:17;100367.66;;;6.71;100.00
51229;BME280;37304;52.216;6.874;2023-03-25T23:59:17;100368.47;;;6.76;100.00
